sensor_id;sensor_type;location;lat;lon;timestamp;pressure;altitude;pressure_sealevel;temperature;humidity
14902;BME280;7542;49.078;9.194;2023-04-21T00:00:01;98263.00;;;27.80;32.79
14902;BME280;7542;49.078;9.194;2023-04-21T00:01:04;98266.81;;;27.79;32.82
14902;BME280;7542;49.078;9.194;2023-04-21T00:02:08;98255.19;;;27.79;32.75
14902;BME280;7542;49.078;9.194;2023-04-21T00:03:11;98257.88;;;27.79;32.72
14902;BME280;7542;49.078;9.194;2023-04-21T00:04:14;98252.28;;;27.75;32.58
14902;BME280;7542;49.078;9.194;2023-04-21T00:05:18;98255.78;;;27.76;32.67
14902;BME280;7542;49.078;9.194;2023-04-21T00:06:20;98258.97;;;27.78;32.75
14902;BME280;7542;49.078;9.194;2023-04-21T00:07:25;98252.78;;;27.77;32.61
14902;BME280;7542;49.078;9.194;2023-04-21T00:08:27;98253.88;;;27.76;32.82
14902;BME280;7542;49.078;9.194;2023-04-21T00:09:29;98249.31;;;27.77;32.66
14902;BME280;7542;49.078;9.194;2023-04-21T00:10:31;98256.88;;;27.75;32.72
14902;BME280;7542;49.078;9.194;2023-04-21T00:11:33;98252.28;;;27.75;32.72
14902;BME280;7542;49.078;9.194;2023-04-21T00:12:35;98248.28;;;27.72;32.77
14902;BME280;7542;49.078;9.194;2023-04-21T00:13:38;98251.50;;;27.75;32.75
14902;BME280;7542;49.078;9.194;2023-04-21T00:14:40;98247.19;;;27.73;32.78
14902;BME280;7542;49.078;9.194;2023-04-21T00:15:43;98245.59;;;27.72;32.70
14902;BME280;7542;49.078;9.194;2023-04-21T00:16:45;98247.50;;;27.72;32.68
14902;BME280;7542;49.078;9.194;2023-04-21T00:17:48;98246.69;;;27.71;32.55
14902;BME280;7542;49.078;9.194;2023-04-21T00:18:50;98246.69;;;27.71;32.90
14902;BME280;7542;49.078;9.194;2023-04-21T00:19:52;98235.91;;;27.71;32.80
14902;BME280;7542;49.078;9.194;2023-04-21T00:20:53;98237.81;;;27.71;32.58
14902;BME280;7542;49.078;9.194;2023-04-21T00:21:57;98240.00;;;27.69;32.71
14902;BME280;7542;49.078;9.194;2023-04-21T00:23:01;98242.69;;;27.69;32.62
14902;BME280;7542;49.078;9.194;2023-04-21T00:24:05;98247.28;;;27.68;32.37
14902;BME280;7542;49.078;9.194;2023-04-21T00:25:07;98235.69;;;27.68;32.53
14902;BME280;7542;49.078;9.194;2023-04-21T00:26:09;98236.75;;;27.67;32.46
14902;BME280;7542;49.078;9.194;2023-04-21T00:27:12;98239.47;;;27.67;32.61
14902;BME280;7542;49.078;9.194;2023-04-21T00:28:14;98233.81;;;27.68;32.65
14902;BME280;7542;49.078;9.194;2023-04-21T00:29:16;98243.25;;;27.66;32.50
14902;BME280;7542;49.078;9.194;2023-04-21T00:30:18;98238.13;;;27.64;32.38
14902;BME280;7542;49.078;9.194;2023-04-21T00:31:20;98235.97;;;27.66;32.46
14902;BME280;7542;49.078;9.194;2023-04-21T00:32:22;98237.06;;;27.65;32.54
14902;BME280;7542;49.078;9.194;2023-04-21T00:33:25;98231.13;;;27.63;32.22
14902;BME280;7542;49.078;9.194;2023-04-21T00:34:27;98225.75;;;27.63;32.54
14902;BME280;7542;49.078;9.194;2023-04-21T00:35:30;98232.72;;;27.64;32.86
14902;BME280;7542;49.078;9.194;2023-04-21T00:36:32;98231.13;;;27.63;32.43
14902;BME280;7542;49.078;9.194;2023-04-21T00:37:34;98224.94;;;27.63;32.28
14902;BME280;7542;49.078;9.194;2023-04-21T00:38:36;98226.84;;;27.62;32.55
14902;BME280;7542;49.078;9.194;2023-04-21T00:39:38;98230.91;;;27.60;32.49
14902;BME280;7542;49.078;9.194;2023-04-21T00:40:40;98229.31;;;27.59;32.43
14902;BME280;7542;49.078;9.194;2023-04-21T00:41:42;98231.72;;;27.60;32.41
14902;BME280;7542;49.078;9.194;2023-04-21T00:42:44;98230.91;;;27.60;32.49
14902;BME280;7542;49.078;9.194;2023-04-21T00:44:04;98234.31;;;27.70;32.58
14902;BME280;7542;49.078;9.194;2023-04-21T00:45:07;98229.81;;;27.61;32.45
14902;BME280;7542;49.078;9.194;2023-04-21T00:46:09;98228.53;;;27.58;32.48
14902;BME280;7542;49.078;9.194;2023-04-21T00:47:11;98224.50;;;27.56;32.41
14902;BME280;7542;49.078;9.194;2023-04-21T00:48:13;98229.88;;;27.56;32.31
14902;BME280;7542;49.078;9.194;2023-04-21T00:49:15;98229.88;;;27.56;32.45
14902;BME280;7542;49.078;9.194;2023-04-21T00:50:18;98227.47;;;27.54;32.68
14902;BME280;7542;49.078;9.194;2023-04-21T00:51:20;98227.78;;;27.53;32.45
14902;BME280;7542;49.078;9.194;2023-04-21T00:52:23;98229.38;;;27.54;32.35
14902;BME280;7542;49.078;9.194;2023-04-21T00:53:25;98228.56;;;27.53;32.49
14902;BME280;7542;49.078;9.194;2023-04-21T00:54:27;98223.19;;;27.53;32.40
14902;BME280;7542;49.078;9.194;2023-04-21T00:55:29;98223.47;;;27.52;32.34
14902;BME280;7542;49.078;9.194;2023-04-21T00:56:34;98228.84;;;27.52;32.48
14902;BME280;7542;49.078;9.194;2023-04-21T00:57:36;98227.25;;;27.51;32.77
14902;BME280;7542;49.078;9.194;2023-04-21T00:58:41;98222.38;;;27.53;32.39
14902;BME280;7542;49.078;9.194;2023-04-21T00:59:43;98221.88;;;27.51;32.36
14902;BME280;7542;49.078;9.194;2023-04-21T01:00:45;98224.06;;;27.49;32.37
14902;BME280;7542;49.078;9.194;2023-04-21T01:01:47;98222.47;;;27.48;32.49
14902;BME280;7542;49.078;9.194;2023-04-21T01:02:49;98224.06;;;27.49;32.38
14902;BME280;7542;49.078;9.194;2023-04-21T01:03:52;98219.75;;;27.48;32.50
14902;BME280;7542;49.078;9.194;2023-04-21T01:04:54;98216.53;;;27.45;32.35
14902;BME280;7542;49.078;9.194;2023-04-21T01:05:56;98216.28;;;27.47;32.38
14902;BME280;7542;49.078;9.194;2023-04-21T01:06:58;98217.63;;;27.44;32.30
14902;BME280;7542;49.078;9.194;2023-04-21T01:08:01;98215.53;;;27.41;32.31
14902;BME280;7542;49.078;9.194;2023-04-21T01:09:03;98220.03;;;27.46;32.30
14902;BME280;7542;49.078;9.194;2023-04-21T01:10:07;98223.00;;;27.44;32.50
14902;BME280;7542;49.078;9.194;2023-04-21T01:11:10;98222.50;;;27.42;32.25
14902;BME280;7542;49.078;9.194;2023-04-21T01:12:12;98222.22;;;27.44;32.12
14902;BME280;7542;49.078;9.194;2023-04-21T01:13:18;98221.41;;;27.43;32.46
14902;BME280;7542;49.078;9.194;2023-04-21T01:14:20;98219.81;;;27.42;32.44
14902;BME280;7542;49.078;9.194;2023-04-21T01:15:23;98224.41;;;27.42;32.21
14902;BME280;7542;49.078;9.194;2023-04-21T01:16:25;98218.50;;;27.40;32.49
14902;BME280;7542;49.078;9.194;2023-04-21T01:17:28;98219.81;;;27.42;32.60
14902;BME280;7542;49.078;9.194;2023-04-21T01:18:32;98218.50;;;27.40;32.39
14902;BME280;7542;49.078;9.194;2023-04-21T01:19:41;98230.28;;;27.44;32.20
14902;BME280;7542;49.078;9.194;2023-04-21T01:20:43;98222.00;;;27.40;32.31
14902;BME280;7542;49.078;9.194;2023-04-21T01:21:45;98224.97;;;27.39;32.32
14902;BME280;7542;49.078;9.194;2023-04-21T01:22:47;98213.16;;;27.35;32.56
14902;BME280;7542;49.078;9.194;2023-04-21T01:23:52;98219.88;;;27.37;32.38
14902;BME280;7542;49.078;9.194;2023-04-21T01:24:54;98220.97;;;27.36;32.23
14902;BME280;7542;49.078;9.194;2023-04-21T01:25:56;98227.47;;;27.35;31.73
14902;BME280;7542;49.078;9.194;2023-04-21T01:26:58;98221.25;;;27.35;32.28
14902;BME280;7542;49.078;9.194;2023-04-21T01:28:01;98220.44;;;27.34;32.08
14902;BME280;7542;49.078;9.194;2023-04-21T01:29:03;98224.75;;;27.35;32.16
14902;BME280;7542;49.078;9.194;2023-04-21T01:30:06;98225.81;;;27.34;32.29
14902;BME280;7542;49.078;9.194;2023-04-21T01:31:09;98226.13;;;27.33;32.34
14902;BME280;7542;49.078;9.194;2023-04-21T01:32:15;98222.06;;;27.35;32.25
14902;BME280;7542;49.078;9.194;2023-04-21T01:33:19;98226.91;;;27.33;32.33
14902;BME280;7542;49.078;9.194;2023-04-21T01:34:22;98228.81;;;27.33;32.39
14902;BME280;7542;49.078;9.194;2023-04-21T01:35:24;98222.91;;;27.31;32.31
14902;BME280;7542;49.078;9.194;2023-04-21T01:36:26;98220.22;;;27.31;32.18
14902;BME280;7542;49.078;9.194;2023-04-21T01:37:31;98217.81;;;27.29;32.11
14902;BME280;7542;49.078;9.194;2023-04-21T01:38:37;98216.72;;;27.30;32.29
14902;BME280;7542;49.078;9.194;2023-04-21T01:39:45;98214.56;;;27.32;32.21
14902;BME280;7542;49.078;9.194;2023-04-21T01:40:53;98212.66;;;27.33;32.36
14902;BME280;7542;49.078;9.194;2023-04-21T01:41:56;98210.56;;;27.30;32.14
14902;BME280;7542;49.078;9.194;2023-04-21T01:42:58;98211.94;;;27.27;32.24
14902;BME280;7542;49.078;9.194;2023-04-21T01:44:00;98213.53;;;27.28;32.32
14902;BME280;7542;49.078;9.194;2023-04-21T01:45:03;98213.03;;;27.26;32.16
14902;BME280;7542;49.078;9.194;2023-04-21T01:46:06;98214.63;;;27.27;32.38
14902;BME280;7542;49.078;9.194;2023-04-21T01:47:08;98209.28;;;27.22;32.30
14902;BME280;7542;49.078;9.194;2023-04-21T01:48:12;98216.28;;;27.23;32.41
14902;BME280;7542;49.078;9.194;2023-04-21T01:49:14;98211.47;;;27.20;32.39
14902;BME280;7542;49.078;9.194;2023-04-21T01:50:16;98217.06;;;27.24;32.35
14902;BME280;7542;49.078;9.194;2023-04-21T01:51:18;98200.69;;;27.20;32.24
14902;BME280;7542;49.078;9.194;2023-04-21T01:52:20;98203.09;;;27.22;32.42
14902;BME280;7542;49.078;9.194;2023-04-21T01:53:22;98210.09;;;27.23;32.30
14902;BME280;7542;49.078;9.194;2023-04-21T01:54:24;98209.28;;;27.22;32.16
14902;BME280;7542;49.078;9.194;2023-04-21T01:55:26;98214.66;;;27.22;32.25
14902;BME280;7542;49.078;9.194;2023-04-21T01:56:28;98208.47;;;27.22;32.45
14902;BME280;7542;49.078;9.194;2023-04-21T01:57:30;98215.25;;;27.19;32.29
14902;BME280;7542;49.078;9.194;2023-04-21T01:58:32;98208.28;;;27.18;32.06
14902;BME280;7542;49.078;9.194;2023-04-21T01:59:35;98213.34;;;27.20;31.96
14902;BME280;7542;49.078;9.194;2023-04-21T02:00:37;98207.19;;;27.19;32.09
14902;BME280;7542;49.078;9.194;2023-04-21T02:01:39;98205.56;;;27.18;32.35
14902;BME280;7542;49.078;9.194;2023-04-21T02:02:41;98203.97;;;27.17;32.12
14902;BME280;7542;49.078;9.194;2023-04-21T02:03:44;98203.19;;;27.17;32.40
14902;BME280;7542;49.078;9.194;2023-04-21T02:04:47;98209.34;;;27.17;32.27
14902;BME280;7542;49.078;9.194;2023-04-21T02:05:49;98210.44;;;27.16;32.15
14902;BME280;7542;49.078;9.194;2023-04-21T02:06:51;98214.22;;;27.15;32.28
14902;BME280;7542;49.078;9.194;2023-04-21T02:07:54;98216.13;;;27.14;32.31
14902;BME280;7542;49.078;9.194;2023-04-21T02:08:57;98219.63;;;27.15;32.20
14902;BME280;7542;49.078;9.194;2023-04-21T02:09:59;98219.88;;;27.13;32.31
14902;BME280;7542;49.078;9.194;2023-04-21T02:11:01;98214.78;;;27.12;31.86
14902;BME280;7542;49.078;9.194;2023-04-21T02:12:03;98220.72;;;27.14;32.20
14902;BME280;7542;49.078;9.194;2023-04-21T02:13:05;98214.28;;;27.10;32.33
14902;BME280;7542;49.078;9.194;2023-04-21T02:14:07;98216.97;;;27.10;32.26
14902;BME280;7542;49.078;9.194;2023-04-21T02:15:10;98215.88;;;27.11;32.05
14902;BME280;7542;49.078;9.194;2023-04-21T02:16:12;98213.75;;;27.08;32.46
14902;BME280;7542;49.078;9.194;2023-04-21T02:17:15;98217.47;;;27.12;32.38
14902;BME280;7542;49.078;9.194;2023-04-21T02:18:18;98211.59;;;27.10;32.16
14902;BME280;7542;49.078;9.194;2023-04-21T02:19:20;98209.97;;;27.09;32.29
14902;BME280;7542;49.078;9.194;2023-04-21T02:20:22;98212.66;;;27.09;32.04
14902;BME280;7542;49.078;9.194;2023-04-21T02:21:25;98209.97;;;27.09;32.22
14902;BME280;7542;49.078;9.194;2023-04-21T02:22:28;98220.22;;;27.07;32.22
14902;BME280;7542;49.078;9.194;2023-04-21T02:23:29;98216.75;;;27.06;32.08
14902;BME280;7542;49.078;9.194;2023-04-21T02:24:31;98222.13;;;27.06;32.12
14902;BME280;7542;49.078;9.194;2023-04-21T02:25:33;98220.22;;;27.07;32.39
14902;BME280;7542;49.078;9.194;2023-04-21T02:26:35;98225.63;;;27.07;32.33
14902;BME280;7542;49.078;9.194;2023-04-21T02:27:37;98227.50;;;27.06;32.32
14902;BME280;7542;49.078;9.194;2023-04-21T02:28:39;98216.75;;;27.06;32.16
14902;BME280;7542;49.078;9.194;2023-04-21T02:29:41;98215.13;;;27.05;32.24
14902;BME280;7542;49.078;9.194;2023-04-21T02:30:43;98216.53;;;27.03;32.16
14902;BME280;7542;49.078;9.194;2023-04-21T02:31:45;98207.63;;;27.02;32.15
14902;BME280;7542;49.078;9.194;2023-04-21T02:33:03;98209.75;;;27.05;32.10
14902;BME280;7542;49.078;9.194;2023-04-21T02:34:06;98205.75;;;27.03;32.18
14902;BME280;7542;49.078;9.194;2023-04-21T02:35:08;98209.50;;;27.02;32.00
14902;BME280;7542;49.078;9.194;2023-04-21T02:36:10;98209.50;;;27.02;32.16
14902;BME280;7542;49.078;9.194;2023-04-21T02:37:12;98206.28;;;27.00;32.41
14902;BME280;7542;49.078;9.194;2023-04-21T02:38:14;98205.47;;;26.99;32.14
14902;BME280;7542;49.078;9.194;2023-04-21T02:39:17;98211.66;;;27.00;32.10
14902;BME280;7542;49.078;9.194;2023-04-21T02:40:19;98210.06;;;26.99;32.29
14902;BME280;7542;49.078;9.194;2023-04-21T02:41:22;98211.16;;;26.98;32.02
14902;BME280;7542;49.078;9.194;2023-04-21T02:42:24;98211.16;;;26.98;32.16
14902;BME280;7542;49.078;9.194;2023-04-21T02:43:26;98206.84;;;26.97;32.28
14902;BME280;7542;49.078;9.194;2023-04-21T02:44:28;98199.88;;;26.96;32.08
14902;BME280;7542;49.078;9.194;2023-04-21T02:45:30;98213.03;;;26.97;32.30
14902;BME280;7542;49.078;9.194;2023-04-21T02:46:31;98202.06;;;26.94;32.01
14902;BME280;7542;49.078;9.194;2023-04-21T02:47:33;98209.53;;;26.97;32.46
14902;BME280;7542;49.078;9.194;2023-04-21T02:48:35;98212.25;;;26.97;31.78
14902;BME280;7542;49.078;9.194;2023-04-21T02:49:41;98209.53;;;26.97;32.23
14902;BME280;7542;49.078;9.194;2023-04-21T02:50:44;98201.47;;;26.97;32.30
14902;BME280;7542;49.078;9.194;2023-04-21T02:51:46;98199.59;;;26.97;32.28
14902;BME280;7542;49.078;9.194;2023-04-21T02:52:47;98204.16;;;26.97;32.09
14902;BME280;7542;49.078;9.194;2023-04-21T02:53:49;98209.03;;;26.95;32.08
14902;BME280;7542;49.078;9.194;2023-04-21T02:54:51;98205.53;;;26.94;32.34
14902;BME280;7542;49.078;9.194;2023-04-21T02:55:53;98194.53;;;26.91;32.21
14902;BME280;7542;49.078;9.194;2023-04-21T02:56:56;98201.25;;;26.93;32.42
14902;BME280;7542;49.078;9.194;2023-04-21T02:57:58;98203.94;;;26.93;32.02
14902;BME280;7542;49.078;9.194;2023-04-21T02:59:00;98198.03;;;26.91;32.52
14902;BME280;7542;49.078;9.194;2023-04-21T03:00:02;98202.59;;;26.91;32.21
14902;BME280;7542;49.078;9.194;2023-04-21T03:01:05;98198.31;;;26.90;32.01
14902;BME280;7542;49.078;9.194;2023-04-21T03:02:07;98201.00;;;26.90;32.16
14902;BME280;7542;49.078;9.194;2023-04-21T03:03:09;98209.88;;;26.90;32.09
14902;BME280;7542;49.078;9.194;2023-04-21T03:04:12;98212.84;;;26.88;31.86
14902;BME280;7542;49.078;9.194;2023-04-21T03:05:14;98213.38;;;26.91;32.17
14902;BME280;7542;49.078;9.194;2023-04-21T03:06:17;98210.97;;;26.89;32.05
14902;BME280;7542;49.078;9.194;2023-04-21T03:07:19;98209.88;;;26.90;32.23
14902;BME280;7542;49.078;9.194;2023-04-21T03:08:21;98222.81;;;26.88;31.97
14902;BME280;7542;49.078;9.194;2023-04-21T03:09:23;98205.06;;;26.87;32.23
14902;BME280;7542;49.078;9.194;2023-04-21T03:10:25;98214.22;;;26.86;32.10
14902;BME280;7542;49.078;9.194;2023-04-21T03:11:27;98208.06;;;26.85;32.17
14902;BME280;7542;49.078;9.194;2023-04-21T03:12:29;98215.31;;;26.85;32.00
14902;BME280;7542;49.078;9.194;2023-04-21T03:13:31;98214.53;;;26.84;32.16
14902;BME280;7542;49.078;9.194;2023-04-21T03:14:33;98216.41;;;26.84;32.03
14902;BME280;7542;49.078;9.194;2023-04-21T03:15:35;98222.31;;;26.86;32.16
14902;BME280;7542;49.078;9.194;2023-04-21T03:16:37;98215.31;;;26.85;31.99
14902;BME280;7542;49.078;9.194;2023-04-21T03:17:40;98214.81;;;26.83;32.29
14902;BME280;7542;49.078;9.194;2023-04-21T03:18:42;98212.91;;;26.83;32.23
14902;BME280;7542;49.078;9.194;2023-04-21T03:19:44;98217.22;;;26.84;32.22
14902;BME280;7542;49.078;9.194;2023-04-21T03:20:46;98218.28;;;26.83;32.21
14902;BME280;7542;49.078;9.194;2023-04-21T03:21:47;98213.22;;;26.82;32.08
14902;BME280;7542;49.078;9.194;2023-04-21T03:22:52;98210.22;;;26.83;32.13
14902;BME280;7542;49.078;9.194;2023-04-21T03:23:54;98212.91;;;26.83;32.17
14902;BME280;7542;49.078;9.194;2023-04-21T03:24:57;98205.94;;;26.82;32.13
14902;BME280;7542;49.078;9.194;2023-04-21T03:25:59;98218.28;;;26.83;32.17
14902;BME280;7542;49.078;9.194;2023-04-21T03:27:01;98218.84;;;26.80;32.22
14902;BME280;7542;49.078;9.194;2023-04-21T03:28:04;98206.47;;;26.79;32.09
14902;BME280;7542;49.078;9.194;2023-04-21T03:29:06;98205.41;;;26.80;32.15
14902;BME280;7542;49.078;9.194;2023-04-21T03:30:09;98204.88;;;26.78;31.92
14902;BME280;7542;49.078;9.194;2023-04-21T03:31:11;98211.06;;;26.79;32.21
14902;BME280;7542;49.078;9.194;2023-04-21T03:32:14;98208.38;;;26.79;32.06
14902;BME280;7542;49.078;9.194;2023-04-21T03:33:16;98204.88;;;26.78;32.10
14902;BME280;7542;49.078;9.194;2023-04-21T03:34:18;98206.78;;;26.78;32.15
14902;BME280;7542;49.078;9.194;2023-04-21T03:35:21;98210.25;;;26.78;31.98
14902;BME280;7542;49.078;9.194;2023-04-21T03:36:23;98201.41;;;26.78;32.00
14902;BME280;7542;49.078;9.194;2023-04-21T03:37:26;98201.69;;;26.76;32.17
14902;BME280;7542;49.078;9.194;2023-04-21T03:38:28;98201.69;;;26.76;32.25
14902;BME280;7542;49.078;9.194;2023-04-21T03:39:31;98196.31;;;26.76;32.18
14902;BME280;7542;49.078;9.194;2023-04-21T03:40:33;98201.69;;;26.76;32.20
14902;BME280;7542;49.078;9.194;2023-04-21T03:41:35;98198.19;;;26.76;31.98
14902;BME280;7542;49.078;9.194;2023-04-21T03:42:38;98201.97;;;26.75;31.98
14902;BME280;7542;49.078;9.194;2023-04-21T03:43:40;98203.84;;;26.74;32.14
14902;BME280;7542;49.078;9.194;2023-04-21T03:44:42;98193.91;;;26.75;32.03
14902;BME280;7542;49.078;9.194;2023-04-21T03:45:45;98198.78;;;26.73;31.89
14902;BME280;7542;49.078;9.194;2023-04-21T03:46:47;98204.94;;;26.73;32.09
14902;BME280;7542;49.078;9.194;2023-04-21T03:47:53;98201.69;;;26.76;31.95
14902;BME280;7542;49.078;9.194;2023-04-21T03:48:56;98200.66;;;26.72;31.85
14902;BME280;7542;49.078;9.194;2023-04-21T03:49:58;98195.28;;;26.72;32.13
14902;BME280;7542;49.078;9.194;2023-04-21T03:51:00;98196.38;;;26.71;31.93
14902;BME280;7542;49.078;9.194;2023-04-21T03:52:03;98199.59;;;26.68;32.12
14902;BME280;7542;49.078;9.194;2023-04-21T03:53:05;98193.94;;;26.70;32.19
14902;BME280;7542;49.078;9.194;2023-04-21T03:54:07;98203.88;;;26.69;31.96
14902;BME280;7542;49.078;9.194;2023-04-21T03:55:10;98203.09;;;26.69;32.25
14902;BME280;7542;49.078;9.194;2023-04-21T03:56:12;98205.28;;;26.67;32.09
14902;BME280;7542;49.078;9.194;2023-04-21T03:57:15;98204.47;;;26.66;32.23
14902;BME280;7542;49.078;9.194;2023-04-21T03:58:17;98209.84;;;26.66;32.01
14902;BME280;7542;49.078;9.194;2023-04-21T03:59:19;98208.75;;;26.67;31.94
14902;BME280;7542;49.078;9.194;2023-04-21T04:00:22;98210.94;;;26.65;32.14
14902;BME280;7542;49.078;9.194;2023-04-21T04:01:26;98215.22;;;26.66;32.00
14902;BME280;7542;49.078;9.194;2023-04-21T04:02:29;98207.44;;;26.65;32.12
14902;BME280;7542;49.078;9.194;2023-04-21T04:03:31;98209.63;;;26.63;32.13
14902;BME280;7542;49.078;9.194;2023-04-21T04:04:34;98205.31;;;26.62;31.98
14902;BME280;7542;49.078;9.194;2023-04-21T04:05:38;98206.13;;;26.62;31.95
14902;BME280;7542;49.078;9.194;2023-04-21T04:06:42;98201.56;;;26.63;32.08
14902;BME280;7542;49.078;9.194;2023-04-21T04:07:45;98199.16;;;26.61;32.05
14902;BME280;7542;49.078;9.194;2023-04-21T04:08:47;98194.06;;;26.60;32.02
14902;BME280;7542;49.078;9.194;2023-04-21T04:09:52;98198.34;;;26.61;31.88
14902;BME280;7542;49.078;9.194;2023-04-21T04:10:55;98189.75;;;26.58;32.14
14902;BME280;7542;49.078;9.194;2023-04-21T04:11:58;98188.38;;;26.61;31.93
14902;BME280;7542;49.078;9.194;2023-04-21T04:13:03;98190.53;;;26.59;31.95
14902;BME280;7542;49.078;9.194;2023-04-21T04:14:05;98191.63;;;26.58;31.94
14902;BME280;7542;49.078;9.194;2023-04-21T04:15:12;98195.13;;;26.58;31.98
14902;BME280;7542;49.078;9.194;2023-04-21T04:16:16;98193.22;;;26.59;32.08
14902;BME280;7542;49.078;9.194;2023-04-21T04:17:19;98191.13;;;26.56;31.92
14902;BME280;7542;49.078;9.194;2023-04-21T04:18:25;98203.47;;;26.57;32.03
14902;BME280;7542;49.078;9.194;2023-04-21T04:19:32;98202.38;;;26.58;31.96
14902;BME280;7542;49.078;9.194;2023-04-21T04:20:36;98203.47;;;26.57;32.21
14902;BME280;7542;49.078;9.194;2023-04-21T04:21:38;98200.78;;;26.57;31.96
14902;BME280;7542;49.078;9.194;2023-04-21T04:22:41;98204.84;;;26.54;32.05
14902;BME280;7542;49.078;9.194;2023-04-21T04:23:43;98204.03;;;26.54;32.13
14902;BME280;7542;49.078;9.194;2023-04-21T04:24:46;98198.66;;;26.54;32.22
14902;BME280;7542;49.078;9.194;2023-04-21T04:25:49;98200.28;;;26.55;32.17
14902;BME280;7542;49.078;9.194;2023-04-21T04:26:53;98196.78;;;26.54;31.90
14902;BME280;7542;49.078;9.194;2023-04-21T04:27:59;98195.97;;;26.54;32.03
14902;BME280;7542;49.078;9.194;2023-04-21T04:29:01;98193.56;;;26.52;32.10
14902;BME280;7542;49.078;9.194;2023-04-21T04:30:05;98199.75;;;26.53;31.96
14902;BME280;7542;49.078;9.194;2023-04-21T04:31:08;98196.78;;;26.54;32.02
14902;BME280;7542;49.078;9.194;2023-04-21T04:32:10;98199.75;;;26.53;32.13
14902;BME280;7542;49.078;9.194;2023-04-21T04:33:12;98205.13;;;26.53;32.15
14902;BME280;7542;49.078;9.194;2023-04-21T04:34:16;98201.66;;;26.52;32.00
14902;BME280;7542;49.078;9.194;2023-04-21T04:35:19;98199.75;;;26.53;31.90
14902;BME280;7542;49.078;9.194;2023-04-21T04:36:21;98201.66;;;26.52;31.85
14902;BME280;7542;49.078;9.194;2023-04-21T04:37:24;98206.22;;;26.52;32.02
14902;BME280;7542;49.078;9.194;2023-04-21T04:38:30;98200.56;;;26.53;32.09
14902;BME280;7542;49.078;9.194;2023-04-21T04:39:36;98205.13;;;26.53;31.96
14902;BME280;7542;49.078;9.194;2023-04-21T04:40:38;98205.13;;;26.53;32.11
14902;BME280;7542;49.078;9.194;2023-04-21T04:41:42;98205.94;;;26.53;31.92
14902;BME280;7542;49.078;9.194;2023-04-21T04:42:45;98204.63;;;26.51;32.11
14902;BME280;7542;49.078;9.194;2023-04-21T04:43:48;98198.16;;;26.52;32.14
14902;BME280;7542;49.078;9.194;2023-04-21T04:44:53;98207.03;;;26.52;32.08
14902;BME280;7542;49.078;9.194;2023-04-21T04:45:57;98207.81;;;26.53;32.04
14902;BME280;7542;49.078;9.194;2023-04-21T04:47:00;98202.72;;;26.51;32.25
14902;BME280;7542;49.078;9.194;2023-04-21T04:48:03;98201.13;;;26.50;32.08
14902;BME280;7542;49.078;9.194;2023-04-21T04:49:06;98209.19;;;26.50;32.05
14902;BME280;7542;49.078;9.194;2023-04-21T04:50:10;98209.47;;;26.49;31.96
14902;BME280;7542;49.078;9.194;2023-04-21T04:51:12;98203.81;;;26.50;31.96
14902;BME280;7542;49.078;9.194;2023-04-21T04:52:15;98209.47;;;26.49;31.88
14902;BME280;7542;49.078;9.194;2023-04-21T04:53:17;98212.16;;;26.49;32.14
14902;BME280;7542;49.078;9.194;2023-04-21T04:54:19;98211.34;;;26.48;32.02
14902;BME280;7542;49.078;9.194;2023-04-21T04:55:22;98213.22;;;26.48;32.24
14902;BME280;7542;49.078;9.194;2023-04-21T04:56:24;98214.84;;;26.49;31.95
14902;BME280;7542;49.078;9.194;2023-04-21T04:57:27;98211.63;;;26.47;32.25
14902;BME280;7542;49.078;9.194;2023-04-21T04:58:29;98220.25;;;26.49;32.08
14902;BME280;7542;49.078;9.194;2023-04-21T04:59:32;98222.63;;;26.50;31.90
14902;BME280;7542;49.078;9.194;2023-04-21T05:00:36;98220.25;;;26.49;31.93
14902;BME280;7542;49.078;9.194;2023-04-21T05:01:38;98225.63;;;26.49;32.20
14902;BME280;7542;49.078;9.194;2023-04-21T05:02:43;98224.78;;;26.48;32.20
14902;BME280;7542;49.078;9.194;2023-04-21T05:03:46;98219.69;;;26.47;31.84
14902;BME280;7542;49.078;9.194;2023-04-21T05:04:49;98225.06;;;26.47;31.78
14902;BME280;7542;49.078;9.194;2023-04-21T05:05:52;98221.28;;;26.48;32.11
14902;BME280;7542;49.078;9.194;2023-04-21T05:06:55;98220.50;;;26.47;31.97
14902;BME280;7542;49.078;9.194;2023-04-21T05:07:58;98221.28;;;26.48;31.84
14902;BME280;7542;49.078;9.194;2023-04-21T05:09:01;98221.28;;;26.48;31.82
14902;BME280;7542;49.078;9.194;2023-04-21T05:10:04;98223.47;;;26.46;32.00
14902;BME280;7542;49.078;9.194;2023-04-21T05:11:07;98223.47;;;26.46;32.05
14902;BME280;7542;49.078;9.194;2023-04-21T05:12:10;98236.91;;;26.46;32.04
14902;BME280;7542;49.078;9.194;2023-04-21T05:13:15;98239.59;;;26.46;32.06
14902;BME280;7542;49.078;9.194;2023-04-21T05:14:19;98244.97;;;26.46;31.87
14902;BME280;7542;49.078;9.194;2023-04-21T05:15:22;98236.09;;;26.45;32.04
14902;BME280;7542;49.078;9.194;2023-04-21T05:16:25;98244.16;;;26.45;31.93
14902;BME280;7542;49.078;9.194;2023-04-21T05:17:27;98239.59;;;26.46;31.93
14902;BME280;7542;49.078;9.194;2023-04-21T05:18:32;98238.78;;;26.45;32.06
14902;BME280;7542;49.078;9.194;2023-04-21T05:19:35;98247.16;;;26.44;32.16
14902;BME280;7542;49.078;9.194;2023-04-21T05:20:40;98247.38;;;26.47;31.92
14902;BME280;7542;49.078;9.194;2023-04-21T05:21:43;98242.56;;;26.44;31.93
14902;BME280;7542;49.078;9.194;2023-04-21T05:22:45;98250.13;;;26.42;31.84
14902;BME280;7542;49.078;9.194;2023-04-21T05:23:48;98256.31;;;26.43;31.92
14902;BME280;7542;49.078;9.194;2023-04-21T05:24:51;98250.91;;;26.43;32.07
14902;BME280;7542;49.078;9.194;2023-04-21T05:25:53;98248.22;;;26.43;31.81
14902;BME280;7542;49.078;9.194;2023-04-21T05:26:55;98257.38;;;26.42;32.06
14902;BME280;7542;49.078;9.194;2023-04-21T05:27:58;98247.94;;;26.44;32.20
14902;BME280;7542;49.078;9.194;2023-04-21T05:29:00;98250.13;;;26.42;31.81
14902;BME280;7542;49.078;9.194;2023-04-21T05:30:03;98244.75;;;26.42;31.86
14902;BME280;7542;49.078;9.194;2023-04-21T05:31:07;98247.16;;;26.44;31.98
14902;BME280;7542;49.078;9.194;2023-04-21T05:32:09;98249.31;;;26.42;32.06
14902;BME280;7542;49.078;9.194;2023-04-21T05:33:13;98249.31;;;26.42;32.15
14902;BME280;7542;49.078;9.194;2023-04-21T05:34:19;98255.50;;;26.42;32.10
14902;BME280;7542;49.078;9.194;2023-04-21T05:35:21;98253.91;;;26.41;32.27
14902;BME280;7542;49.078;9.194;2023-04-21T05:36:24;98260.88;;;26.42;32.30